Terminal Aerodrome Forecast
Issued by NWS

Home | Current Version | Previous Version | Text Only | Print | Product List | Glossary On
Versions: 1 2 3 4 5 6 7 8 9 10 11 12 13 14 15 16 17 18 19 20
000
FTAK31 PAJN 080113 AAB
TAFAJN
TAF AMD
PAJN 080113Z 0801/0824 05006KT P6SM VCSH FEW004 SCT015 BKN050
      TEMPO 0801/0805 13012KT 3SM -SHSN SCT004 BKN012
     FM080500 07006KT P6SM SCT010 BKN035 OVC060
     FM080900 07010KT P6SM SCT030 SCT060
     FM082100 07010KT P6SM SKC=

USA.gov is the U.S. government's official web portal to all federal, state and local government web resources and services.